createdAt,value
2023-02-19T00:00:25.757Z,0.00
2023-02-19T00:01:26.647Z,0.00
2023-02-19T00:02:27.514Z,0.00
2023-02-19T00:03:28.410Z,0.00
2023-02-19T00:04:29.381Z,0.00
2023-02-19T00:05:30.286Z,0.00
2023-02-19T00:06:31.146Z,0.00
2023-02-19T00:07:32.051Z,0.00
2023-02-19T00:08:32.965Z,0.00
2023-02-19T00:09:33.863Z,0.00
2023-02-19T00:10:34.746Z,0.00
2023-02-19T00:11:35.654Z,0.00
2023-02-19T00:12:36.345Z,0.00
2023-02-19T00:13:37.227Z,0.00
2023-02-19T00:14:38.121Z,0.00
2023-02-19T00:15:39.047Z,0.00
2023-02-19T00:16:39.903Z,0.00
2023-02-19T00:17:40.807Z,0.00
2023-02-19T00:18:41.649Z,0.00
2023-02-19T00:19:42.558Z,0.00
2023-02-19T00:20:43.439Z,0.00
2023-02-19T00:21:44.315Z,0.00
2023-02-19T00:22:45.200Z,0.00
2023-02-19T00:23:46.120Z,0.00
2023-02-19T00:24:49.205Z,0.00
2023-02-19T00:25:47.613Z,0.00
2023-02-19T00:26:48.497Z,0.00
2023-02-19T00:27:49.383Z,0.00
2023-02-19T00:28:50.286Z,0.00
2023-02-19T00:29:51.208Z,0.00
2023-02-19T00:30:52.105Z,0.00
2023-02-19T00:31:53.066Z,0.00
2023-02-19T00:32:53.469Z,0.00
2023-02-19T00:33:54.350Z,0.00
2023-02-19T00:34:55.252Z,0.00
2023-02-19T00:35:56.170Z,0.00
2023-02-19T00:36:57.040Z,0.00
2023-02-19T00:37:57.914Z,0.00
2023-02-19T00:38:58.807Z,0.00
2023-02-19T00:39:59.716Z,0.00
2023-02-19T00:41:00.599Z,0.00
2023-02-19T00:42:01.470Z,0.00
2023-02-19T00:43:02.359Z,0.00
2023-02-19T00:44:03.250Z,0.00
2023-02-19T00:45:04.122Z,0.00
2023-02-19T00:46:05.062Z,0.00
2023-02-19T00:47:05.906Z,0.00
2023-02-19T00:48:06.782Z,0.00
2023-02-19T00:49:07.665Z,0.00
2023-02-19T00:50:08.548Z,0.00
2023-02-19T00:51:09.821Z,0.00
2023-02-19T00:52:10.296Z,0.00
2023-02-19T00:53:11.199Z,0.00
2023-02-19T00:54:12.101Z,0.00
2023-02-19T00:55:13.006Z,0.00
2023-02-19T00:56:13.884Z,0.00
2023-02-19T00:57:14.767Z,0.00
2023-02-19T00:58:15.649Z,0.00
2023-02-19T00:59:16.536Z,0.00
2023-02-19T01:00:17.433Z,0.00
2023-02-19T01:01:18.357Z,0.00
2023-02-19T01:02:19.197Z,0.00
2023-02-19T01:03:20.079Z,0.00
2023-02-19T01:04:21.011Z,0.00
2023-02-19T01:05:21.890Z,0.00
2023-02-19T01:06:22.747Z,0.00
2023-02-19T01:07:23.627Z,0.00
2023-02-19T01:08:24.548Z,0.00
2023-02-19T01:09:25.391Z,0.00
2023-02-19T01:10:26.274Z,0.00
2023-02-19T01:11:27.156Z,0.00
2023-02-19T01:12:28.038Z,0.00
2023-02-19T01:13:28.953Z,0.00
2023-02-19T01:14:29.828Z,0.00
2023-02-19T01:15:30.713Z,0.00
2023-02-19T01:16:31.611Z,0.00
2023-02-19T01:17:32.478Z,0.00
2023-02-19T01:18:33.349Z,0.00
2023-02-19T01:19:34.271Z,0.00
2023-02-19T01:20:35.139Z,0.00
2023-02-19T01:21:36.024Z,0.00
2023-02-19T01:22:36.893Z,0.00
2023-02-19T01:23:37.774Z,0.00
2023-02-19T01:24:38.651Z,0.00
2023-02-19T01:25:39.593Z,0.00
2023-02-19T01:26:40.440Z,0.00
2023-02-19T01:27:41.312Z,0.00
2023-02-19T01:28:42.182Z,0.00
2023-02-19T01:29:43.080Z,0.00
2023-02-19T01:30:44.009Z,0.00
2023-02-19T01:31:45.028Z,0.00
2023-02-19T01:32:45.375Z,0.00
2023-02-19T01:33:46.254Z,0.00
2023-02-19T01:34:47.143Z,0.00
2023-02-19T01:35:48.030Z,0.00
2023-02-19T01:36:48.914Z,0.00
2023-02-19T01:37:49.801Z,0.00
2023-02-19T01:38:50.730Z,0.00
2023-02-19T01:39:51.577Z,0.00
2023-02-19T01:40:52.469Z,0.00
2023-02-19T01:41:53.353Z,0.00
2023-02-19T01:42:54.235Z,0.00
2023-02-19T01:43:55.115Z,0.00
2023-02-19T01:44:56.034Z,0.00
2023-02-19T01:45:56.891Z,0.00
2023-02-19T01:46:57.790Z,0.00
2023-02-19T01:47:58.653Z,0.00
2023-02-19T01:48:59.533Z,0.00
2023-02-19T01:50:00.430Z,0.00
2023-02-19T01:51:01.372Z,0.00
2023-02-19T01:52:02.249Z,0.00
2023-02-19T01:53:03.115Z,0.00
2023-02-19T01:54:04.012Z,0.00
2023-02-19T01:55:04.909Z,0.00
2023-02-19T01:56:05.783Z,0.00
2023-02-19T01:57:06.766Z,0.00
2023-02-19T01:58:07.594Z,0.00
2023-02-19T01:59:08.478Z,0.00
2023-02-19T02:00:09.345Z,0.00
2023-02-19T02:01:10.657Z,0.00
2023-02-19T02:02:10.759Z,0.00
2023-02-19T02:03:11.642Z,0.00
2023-02-19T02:04:12.486Z,0.00
2023-02-19T02:05:13.361Z,0.00
2023-02-19T02:06:14.251Z,0.00
2023-02-19T02:07:15.135Z,0.00
2023-02-19T02:08:16.024Z,0.00
2023-02-19T02:09:16.952Z,0.00
2023-02-19T02:10:17.786Z,0.00
2023-02-19T02:11:18.689Z,0.00
2023-02-19T02:12:19.591Z,0.00
2023-02-19T02:13:20.495Z,0.00
2023-02-19T02:14:21.378Z,0.00
2023-02-19T02:15:22.291Z,0.00
2023-02-19T02:16:23.236Z,0.00
2023-02-19T02:17:24.131Z,0.00
2023-02-19T02:18:24.998Z,0.00
2023-02-19T02:19:25.888Z,0.00
2023-02-19T02:20:26.780Z,0.00
2023-02-19T02:21:27.719Z,0.00
2023-02-19T02:22:28.572Z,0.00
2023-02-19T02:23:29.448Z,0.00
2023-02-19T02:24:30.349Z,0.00
2023-02-19T02:25:31.236Z,0.00
2023-02-19T02:26:32.124Z,0.00
2023-02-19T02:27:33.048Z,0.00
2023-02-19T02:28:33.893Z,0.00
2023-02-19T02:29:34.767Z,0.00
2023-02-19T02:30:35.648Z,0.00
2023-02-19T02:31:36.648Z,0.00
2023-02-19T02:32:37.504Z,0.00
2023-02-19T02:33:38.398Z,0.00
2023-02-19T02:34:39.257Z,0.00
2023-02-19T02:35:40.141Z,0.00
2023-02-19T02:36:41.049Z,0.00
2023-02-19T02:37:41.913Z,0.00
2023-02-19T02:38:42.795Z,0.00
2023-02-19T02:39:43.747Z,0.00
2023-02-19T02:40:44.570Z,0.00
2023-02-19T02:41:45.453Z,0.00
2023-02-19T02:42:46.343Z,0.00
2023-02-19T02:43:47.209Z,0.00
2023-02-19T02:44:48.093Z,0.00
2023-02-19T02:45:49.073Z,0.00
2023-02-19T02:46:49.923Z,0.00
2023-02-19T02:47:50.807Z,0.00
2023-02-19T02:48:51.688Z,0.00
2023-02-19T02:49:52.572Z,0.00
2023-02-19T02:50:53.456Z,0.00
2023-02-19T02:51:54.391Z,0.00
2023-02-19T02:52:55.246Z,0.00
2023-02-19T02:53:56.120Z,0.00
2023-02-19T02:54:57.003Z,0.00
2023-02-19T02:55:57.879Z,0.00
2023-02-19T02:56:58.775Z,0.00
2023-02-19T02:57:59.695Z,0.00
2023-02-19T02:59:00.554Z,0.00
2023-02-19T03:00:01.429Z,0.00
2023-02-19T03:01:02.358Z,0.00
2023-02-19T03:02:03.245Z,0.00
2023-02-19T03:03:04.082Z,0.00
2023-02-19T03:04:05.008Z,0.00
2023-02-19T03:05:05.860Z,0.00
2023-02-19T03:06:06.740Z,0.00
2023-02-19T03:07:07.656Z,0.00
2023-02-19T03:08:08.543Z,0.00
2023-02-19T03:09:09.444Z,0.00
2023-02-19T03:10:10.362Z,0.00
2023-02-19T03:11:11.475Z,0.00
2023-02-19T03:12:11.896Z,0.00
2023-02-19T03:13:12.780Z,0.00
2023-02-19T03:14:13.663Z,0.00
2023-02-19T03:15:14.545Z,0.00
2023-02-19T03:16:15.548Z,0.00
2023-02-19T03:17:16.406Z,0.00
2023-02-19T03:18:17.289Z,0.00
2023-02-19T03:19:18.187Z,0.00
2023-02-19T03:20:19.061Z,0.00
2023-02-19T03:21:19.936Z,0.00
2023-02-19T03:22:20.892Z,0.00
2023-02-19T03:23:21.728Z,0.00
2023-02-19T03:24:22.610Z,0.00
2023-02-19T03:25:23.530Z,0.00
2023-02-19T03:26:24.400Z,0.00
2023-02-19T03:27:25.292Z,0.00
2023-02-19T03:28:26.217Z,0.00
2023-02-19T03:29:27.088Z,0.00
2023-02-19T03:30:27.990Z,0.00
2023-02-19T03:31:28.979Z,0.00
2023-02-19T03:32:29.369Z,0.00
2023-02-19T03:33:30.257Z,0.00
2023-02-19T03:34:31.176Z,0.00
2023-02-19T03:35:32.063Z,0.00
2023-02-19T03:36:32.954Z,0.00
2023-02-19T03:37:33.837Z,0.00
2023-02-19T03:38:34.720Z,0.00
2023-02-19T03:39:35.618Z,0.00
2023-02-19T03:40:36.497Z,0.00
2023-02-19T03:41:37.368Z,0.00
2023-02-19T03:42:38.268Z,0.00
2023-02-19T03:43:39.145Z,0.00
2023-02-19T03:44:40.055Z,0.00
2023-02-19T03:45:40.983Z,0.00
2023-02-19T03:46:41.825Z,0.00
2023-02-19T03:47:42.714Z,0.00
2023-02-19T03:48:43.597Z,0.00
2023-02-19T03:49:44.479Z,0.00
2023-02-19T03:50:45.352Z,0.00
2023-02-19T03:51:46.237Z,0.00
2023-02-19T03:52:47.146Z,0.00
2023-02-19T03:53:48.017Z,0.00
2023-02-19T03:54:48.904Z,0.00
2023-02-19T03:55:49.782Z,0.00
2023-02-19T03:56:50.675Z,0.00
2023-02-19T03:57:51.597Z,0.00
2023-02-19T03:58:52.424Z,0.00
2023-02-19T03:59:53.306Z,0.00
2023-02-19T04:00:54.186Z,0.00
2023-02-19T04:01:55.080Z,0.00
2023-02-19T04:02:55.956Z,0.00
2023-02-19T04:03:56.841Z,0.00
2023-02-19T04:04:57.774Z,0.00
2023-02-19T04:05:58.602Z,0.00
2023-02-19T04:06:59.500Z,0.00
2023-02-19T04:08:00.412Z,0.00
2023-02-19T04:09:01.304Z,0.00
2023-02-19T04:10:02.218Z,0.00
2023-02-19T04:11:03.131Z,0.00
2023-02-19T04:12:03.987Z,0.00
2023-02-19T04:13:04.888Z,0.00
2023-02-19T04:14:05.798Z,0.00
2023-02-19T04:15:06.697Z,0.00
2023-02-19T04:16:07.596Z,0.00
2023-02-19T04:17:08.492Z,0.00
2023-02-19T04:18:09.402Z,0.00
2023-02-19T04:19:10.270Z,0.00
2023-02-19T04:20:11.162Z,0.00
2023-02-19T04:21:12.377Z,0.00
2023-02-19T04:22:12.830Z,0.00
2023-02-19T04:23:13.727Z,0.00
2023-02-19T04:24:14.611Z,0.00
2023-02-19T04:25:15.500Z,0.00
2023-02-19T04:26:16.416Z,0.00
2023-02-19T04:27:17.242Z,0.00
2023-02-19T04:28:18.125Z,0.00
2023-02-19T04:29:19.005Z,0.00
2023-02-19T04:30:19.900Z,0.00
2023-02-19T04:31:20.957Z,0.00
2023-02-19T04:32:21.342Z,0.00
2023-02-19T04:33:22.240Z,0.00
2023-02-19T04:34:23.127Z,0.00
2023-02-19T04:35:24.010Z,0.00
2023-02-19T04:36:24.893Z,0.00
2023-02-19T04:37:25.797Z,0.00
2023-02-19T04:38:26.704Z,0.00
2023-02-19T04:39:27.585Z,0.00
2023-02-19T04:40:28.445Z,0.00
2023-02-19T04:41:29.332Z,0.00
2023-02-19T04:42:30.220Z,0.00
2023-02-19T04:43:31.106Z,0.00
2023-02-19T04:44:31.993Z,0.00
2023-02-19T04:45:32.869Z,0.00
2023-02-19T04:46:33.754Z,0.00
2023-02-19T04:47:34.645Z,0.00
2023-02-19T04:48:35.529Z,0.00
2023-02-19T04:49:36.416Z,0.00
2023-02-19T04:50:37.287Z,0.00
2023-02-19T04:51:38.180Z,0.00
2023-02-19T04:52:39.061Z,0.00
2023-02-19T04:53:39.951Z,0.00
2023-02-19T04:54:40.830Z,0.00
2023-02-19T04:55:41.706Z,0.00
2023-02-19T04:56:42.580Z,0.00
2023-02-19T04:57:43.470Z,0.00
2023-02-19T04:58:44.343Z,0.00
2023-02-19T04:59:45.229Z,0.00
2023-02-19T05:00:46.118Z,0.00
2023-02-19T05:01:47.095Z,0.00
2023-02-19T05:02:47.513Z,0.00
2023-02-19T05:03:48.386Z,0.00
2023-02-19T05:04:49.271Z,0.00
2023-02-19T05:05:50.152Z,0.00
2023-02-19T05:06:51.027Z,0.00
2023-02-19T05:07:51.924Z,0.00
2023-02-19T05:08:52.806Z,0.00
2023-02-19T05:09:53.721Z,0.00
2023-02-19T05:10:54.573Z,0.00
2023-02-19T05:11:55.453Z,0.00
2023-02-19T05:12:58.021Z,0.00
2023-02-19T05:13:56.984Z,0.00
2023-02-19T05:14:57.889Z,0.00
2023-02-19T05:15:58.893Z,0.00
2023-02-19T05:16:59.726Z,0.00
2023-02-19T05:18:00.651Z,0.00
2023-02-19T05:19:01.509Z,0.00
2023-02-19T05:20:02.439Z,0.00
2023-02-19T05:21:03.283Z,0.00
2023-02-19T05:22:04.175Z,0.00
2023-02-19T05:23:05.081Z,0.00
2023-02-19T05:24:05.985Z,0.00
2023-02-19T05:25:06.846Z,0.00
2023-02-19T05:26:07.729Z,0.00
2023-02-19T05:27:08.611Z,0.00
2023-02-19T05:28:09.510Z,0.00
2023-02-19T05:29:10.394Z,0.00
2023-02-19T05:30:11.342Z,0.00
2023-02-19T05:31:12.598Z,0.00
2023-02-19T05:32:12.741Z,0.00
2023-02-19T05:33:13.598Z,0.00
2023-02-19T05:34:14.475Z,0.00
2023-02-19T05:35:15.357Z,0.00
2023-02-19T05:36:16.288Z,0.00
2023-02-19T05:37:17.126Z,0.00
2023-02-19T05:38:18.038Z,0.00
2023-02-19T05:39:18.917Z,0.00
2023-02-19T05:40:19.800Z,0.00
2023-02-19T05:41:20.673Z,0.00
2023-02-19T05:42:21.595Z,0.00
2023-02-19T05:43:22.474Z,0.00
2023-02-19T05:44:23.372Z,0.00
2023-02-19T05:45:24.271Z,0.00
2023-02-19T05:46:25.230Z,0.00
2023-02-19T05:47:26.091Z,0.00
2023-02-19T05:48:27.061Z,0.00
2023-02-19T05:49:27.918Z,0.00
2023-02-19T05:50:28.778Z,0.00
2023-02-19T05:51:29.742Z,0.00
2023-02-19T05:52:30.623Z,0.00
2023-02-19T05:53:31.533Z,0.00
2023-02-19T05:54:32.464Z,0.00
2023-02-19T05:55:33.300Z,0.00
2023-02-19T05:56:34.201Z,0.00
2023-02-19T05:57:35.098Z,0.00
2023-02-19T05:58:36.027Z,0.00
2023-02-19T05:59:36.875Z,1.00
2023-02-19T06:00:37.784Z,0.00
2023-02-19T06:01:38.648Z,0.00
2023-02-19T06:02:39.536Z,1.00
2023-02-19T06:03:40.343Z,1.00
2023-02-19T06:04:41.159Z,1.00
2023-02-19T06:05:41.990Z,1.00
2023-02-19T06:06:42.857Z,1.00
2023-02-19T06:07:43.656Z,1.00
2023-02-19T06:08:44.499Z,1.00
2023-02-19T06:09:45.375Z,0.00
2023-02-19T06:10:46.279Z,0.00
2023-02-19T06:11:47.144Z,0.00
2023-02-19T06:12:48.061Z,0.00
2023-02-19T06:13:48.885Z,2.00
2023-02-19T06:14:49.718Z,2.00
2023-02-19T06:15:50.596Z,2.00
2023-02-19T06:16:51.381Z,2.00
2023-02-19T06:17:52.207Z,2.00
2023-02-19T06:18:53.091Z,2.00
2023-02-19T06:19:53.893Z,2.00
2023-02-19T06:20:54.715Z,2.00
2023-02-19T06:21:55.547Z,2.00
2023-02-19T06:22:56.384Z,2.00
2023-02-19T06:23:57.208Z,2.00
2023-02-19T06:24:58.033Z,1.00
2023-02-19T06:25:58.933Z,1.00
2023-02-19T06:26:59.709Z,1.00
2023-02-19T06:28:00.532Z,3.00
2023-02-19T06:29:01.369Z,3.00
2023-02-19T06:30:02.248Z,3.00
2023-02-19T06:31:03.070Z,4.00
2023-02-19T06:32:03.973Z,2.00
2023-02-19T06:33:04.763Z,2.00
2023-02-19T06:34:05.635Z,4.00
2023-02-19T06:35:06.430Z,3.00
2023-02-19T06:36:07.273Z,3.00
2023-02-19T06:37:08.114Z,7.00
2023-02-19T06:38:08.912Z,10.00
2023-02-19T06:39:09.747Z,9.00
2023-02-19T06:40:10.566Z,10.00
2023-02-19T06:41:11.737Z,11.00
2023-02-19T06:42:12.191Z,8.00
2023-02-19T06:43:12.991Z,5.00
2023-02-19T06:44:13.860Z,11.00
2023-02-19T06:45:14.700Z,17.00
2023-02-19T06:46:15.576Z,10.00
2023-02-19T06:47:16.391Z,23.00
2023-02-19T06:48:17.224Z,20.00
2023-02-19T06:49:18.074Z,11.00
2023-02-19T06:50:18.882Z,9.00
2023-02-19T06:51:19.721Z,7.00
2023-02-19T06:52:20.608Z,10.00
2023-02-19T06:53:21.393Z,11.00
2023-02-19T06:54:22.229Z,20.00
2023-02-19T06:55:23.060Z,16.00
2023-02-19T06:56:23.889Z,17.00
2023-02-19T06:57:24.732Z,16.00
2023-02-19T06:58:25.566Z,20.00
2023-02-19T06:59:26.396Z,13.00
2023-02-19T07:00:27.217Z,19.00
2023-02-19T07:01:28.065Z,18.00
2023-02-19T07:02:28.873Z,11.00
2023-02-19T07:03:29.714Z,7.00
2023-02-19T07:04:30.667Z,14.00
2023-02-19T07:05:31.491Z,22.00
2023-02-19T07:06:32.325Z,24.00
2023-02-19T07:07:33.187Z,17.00
2023-02-19T07:08:34.000Z,15.00
2023-02-19T07:09:34.832Z,13.00
2023-02-19T07:10:35.660Z,16.00
2023-02-19T07:11:36.586Z,17.00
2023-02-19T07:12:37.366Z,9.00
2023-02-19T07:13:38.191Z,15.00
2023-02-19T07:14:39.020Z,15.00
2023-02-19T07:15:39.871Z,17.00
2023-02-19T07:16:40.727Z,13.00
2023-02-19T07:17:41.525Z,12.00
2023-02-19T07:18:42.396Z,18.00
2023-02-19T07:19:43.262Z,28.00
2023-02-19T07:20:44.034Z,27.00
2023-02-19T07:21:44.870Z,20.00
2023-02-19T07:22:45.693Z,24.00
2023-02-19T07:23:46.525Z,25.00
2023-02-19T07:24:48.028Z,28.00
2023-02-19T07:25:47.907Z,27.00
2023-02-19T07:26:48.691Z,28.00
2023-02-19T07:27:49.511Z,32.00
2023-02-19T07:28:50.386Z,23.00
2023-02-19T07:29:51.200Z,20.00
2023-02-19T07:30:52.100Z,21.00
2023-02-19T07:31:52.941Z,22.00
2023-02-19T07:32:53.739Z,24.00
2023-02-19T07:33:54.575Z,26.00
2023-02-19T07:34:55.409Z,28.00
2023-02-19T07:35:56.251Z,30.00
2023-02-19T07:36:57.076Z,33.00
2023-02-19T07:37:57.898Z,29.00
2023-02-19T07:38:58.726Z,29.00
2023-02-19T07:39:59.569Z,36.00
2023-02-19T07:41:00.395Z,37.00
2023-02-19T07:42:01.227Z,46.00
2023-02-19T07:43:02.088Z,61.00
2023-02-19T07:44:02.890Z,42.00
2023-02-19T07:45:03.735Z,66.00
2023-02-19T07:46:04.638Z,40.00
2023-02-19T07:47:05.490Z,44.00
2023-02-19T07:48:06.275Z,61.00
2023-02-19T07:49:07.106Z,47.00
2023-02-19T07:50:07.942Z,50.00
2023-02-19T07:51:08.958Z,50.00
2023-02-19T07:52:09.411Z,39.00
2023-02-19T07:53:10.175Z,46.00
2023-02-19T07:54:11.002Z,51.00
2023-02-19T07:55:11.889Z,40.00
2023-02-19T07:56:12.745Z,100.00
2023-02-19T07:57:13.563Z,68.00
2023-02-19T07:58:14.396Z,72.00
2023-02-19T07:59:15.220Z,79.00
2023-02-19T08:00:16.058Z,82.00
2023-02-19T08:01:16.967Z,68.00
2023-02-19T08:02:17.736Z,104.00
2023-02-19T08:03:18.592Z,78.00
2023-02-19T08:04:19.443Z,86.00
2023-02-19T08:05:20.248Z,89.00
2023-02-19T08:06:21.085Z,83.00
2023-02-19T08:07:22.046Z,82.00
2023-02-19T08:08:22.798Z,66.00
2023-02-19T08:09:23.645Z,70.00
2023-02-19T08:10:24.471Z,61.00
2023-02-19T08:11:25.298Z,73.00
2023-02-19T08:12:26.184Z,98.00
2023-02-19T08:13:26.974Z,67.00
2023-02-19T08:14:27.809Z,59.00
2023-02-19T08:15:28.649Z,66.00
2023-02-19T08:16:42.679Z,45.00
2023-02-19T08:17:31.479Z,42.00
2023-02-19T08:18:30.762Z,133.00
2023-02-19T08:19:31.587Z,167.00
2023-02-19T08:20:32.423Z,119.00
2023-02-19T08:21:34.426Z,98.00
2023-02-19T08:22:33.856Z,78.00
2023-02-19T08:23:34.651Z,58.00
2023-02-19T08:24:35.472Z,46.00
2023-02-19T08:25:36.314Z,39.00
2023-02-19T08:26:37.145Z,47.00
2023-02-19T08:27:37.982Z,37.00
2023-02-19T08:28:38.815Z,60.00
2023-02-19T08:29:39.642Z,50.00
2023-02-19T08:30:40.554Z,57.00
2023-02-19T08:31:41.411Z,44.00
2023-02-19T08:32:42.203Z,39.00
2023-02-19T08:33:43.038Z,78.00
2023-02-19T08:34:43.852Z,68.00
2023-02-19T08:35:44.693Z,48.00
2023-02-19T08:36:45.521Z,29.00
2023-02-19T08:37:46.343Z,41.00
2023-02-19T08:38:47.184Z,222.00
2023-02-19T08:39:48.007Z,67.00
2023-02-19T08:40:48.847Z,76.00
2023-02-19T08:41:49.674Z,92.00
2023-02-19T08:42:50.493Z,84.00
2023-02-19T08:43:51.327Z,93.00
2023-02-19T08:44:52.167Z,96.00
2023-02-19T08:45:53.012Z,48.00
2023-02-19T08:46:53.827Z,66.00
2023-02-19T08:47:54.650Z,71.00
2023-02-19T08:48:55.498Z,42.00
2023-02-19T08:49:56.335Z,87.00
2023-02-19T08:50:57.176Z,77.00
2023-02-19T08:51:58.010Z,114.00
2023-02-19T08:52:58.817Z,106.00
2023-02-19T08:53:59.641Z,87.00
2023-02-19T08:55:00.467Z,52.00
2023-02-19T08:56:01.439Z,77.00
2023-02-19T08:57:02.279Z,97.00
2023-02-19T08:58:03.097Z,83.00
2023-02-19T08:59:03.917Z,83.00
2023-02-19T09:00:04.746Z,86.00
2023-02-19T09:01:05.631Z,123.00
2023-02-19T09:02:06.423Z,98.00
2023-02-19T09:03:07.254Z,92.00
2023-02-19T09:04:08.107Z,99.00
2023-02-19T09:05:08.903Z,240.00
2023-02-19T09:06:10.093Z,158.00
2023-02-19T09:07:10.532Z,140.00
2023-02-19T09:08:11.362Z,105.00
2023-02-19T09:09:12.192Z,148.00
2023-02-19T09:10:13.026Z,144.00
2023-02-19T09:11:14.212Z,124.00
2023-02-19T09:12:14.657Z,130.00
2023-02-19T09:13:15.473Z,125.00
2023-02-19T09:14:16.302Z,129.00
2023-02-19T09:15:17.130Z,144.00
2023-02-19T09:16:17.965Z,126.00
2023-02-19T09:17:18.809Z,131.00
2023-02-19T09:18:19.625Z,216.00
2023-02-19T09:19:20.452Z,208.00
2023-02-19T09:20:21.288Z,148.00
2023-02-19T09:21:22.120Z,170.00
2023-02-19T09:22:22.949Z,157.00
2023-02-19T09:23:23.774Z,113.00
2023-02-19T09:24:24.611Z,57.00
2023-02-19T09:25:25.435Z,130.00
2023-02-19T09:26:26.293Z,90.00
2023-02-19T09:27:27.233Z,443.00
2023-02-19T09:28:28.097Z,246.00
2023-02-19T09:29:28.886Z,142.00
2023-02-19T09:30:29.751Z,93.00
2023-02-19T09:31:30.718Z,147.00
2023-02-19T09:32:31.038Z,131.00
2023-02-19T09:33:31.874Z,110.00
2023-02-19T09:34:32.710Z,106.00
2023-02-19T09:35:33.526Z,72.00
2023-02-19T09:36:34.375Z,91.00
2023-02-19T09:37:35.199Z,127.00
2023-02-19T09:38:36.026Z,200.00
2023-02-19T09:39:36.857Z,207.00
2023-02-19T09:40:37.681Z,207.00
2023-02-19T09:41:38.509Z,181.00
2023-02-19T09:42:39.343Z,117.00
2023-02-19T09:43:40.178Z,111.00
2023-02-19T09:44:40.998Z,114.00
2023-02-19T09:45:41.815Z,110.00
2023-02-19T09:46:42.652Z,135.00
2023-02-19T09:47:43.474Z,106.00
2023-02-19T09:48:44.300Z,189.00
2023-02-19T09:49:45.138Z,190.00
2023-02-19T09:50:45.957Z,173.00
2023-02-19T09:51:46.802Z,140.00
2023-02-19T09:52:47.617Z,114.00
2023-02-19T09:53:48.434Z,208.00
2023-02-19T09:54:49.267Z,274.00
2023-02-19T09:55:50.118Z,211.00
2023-02-19T09:56:50.937Z,194.00
2023-02-19T09:57:51.438Z,227.00
2023-02-19T09:58:52.253Z,218.00
2023-02-19T09:59:53.080Z,167.00
2023-02-19T10:00:53.943Z,214.00
2023-02-19T10:01:54.838Z,142.00
2023-02-19T10:02:55.608Z,214.00
2023-02-19T10:03:56.440Z,119.00
2023-02-19T10:04:57.287Z,271.00
2023-02-19T10:05:58.085Z,245.00
2023-02-19T10:06:58.922Z,302.00
2023-02-19T10:07:59.755Z,258.00
2023-02-19T10:09:00.582Z,155.00
2023-02-19T10:10:01.422Z,229.00
2023-02-19T10:11:02.235Z,219.00
2023-02-19T10:12:03.064Z,308.00
2023-02-19T10:13:03.892Z,260.00
2023-02-19T10:14:04.723Z,149.00
2023-02-19T10:15:05.547Z,178.00
2023-02-19T10:16:06.465Z,144.00
2023-02-19T10:17:07.289Z,288.00
2023-02-19T10:18:10.888Z,234.00
2023-02-19T10:19:08.969Z,208.00
2023-02-19T10:20:09.793Z,171.00
2023-02-19T10:21:11.030Z,191.00
2023-02-19T10:22:11.460Z,131.00
2023-02-19T10:23:12.288Z,129.00
2023-02-19T10:24:13.107Z,138.00
2023-02-19T10:25:13.938Z,117.00
2023-02-19T10:26:14.763Z,125.00
2023-02-19T10:27:15.600Z,106.00
2023-02-19T10:28:16.424Z,194.00
2023-02-19T10:29:17.253Z,170.00
2023-02-19T10:30:18.139Z,223.00
2023-02-19T10:31:20.819Z,202.00
2023-02-19T10:32:19.876Z,211.00
2023-02-19T10:33:20.654Z,182.00
2023-02-19T10:34:21.474Z,135.00
2023-02-19T10:35:22.317Z,123.00
2023-02-19T10:36:23.132Z,100.00
2023-02-19T10:37:23.974Z,212.00
2023-02-19T10:38:24.810Z,150.00
2023-02-19T10:39:25.632Z,122.00
2023-02-19T10:40:26.463Z,106.00
2023-02-19T10:41:27.291Z,100.00
2023-02-19T10:42:28.124Z,323.00
2023-02-19T10:43:28.955Z,101.00
2023-02-19T10:44:29.799Z,207.00
2023-02-19T10:45:30.612Z,174.00
2023-02-19T10:46:31.436Z,130.00
2023-02-19T10:47:32.266Z,346.00
2023-02-19T10:48:33.123Z,135.00
2023-02-19T10:49:33.915Z,345.00
2023-02-19T10:50:34.749Z,188.00
2023-02-19T10:51:35.588Z,178.00
2023-02-19T10:52:36.414Z,133.00
2023-02-19T10:53:37.244Z,94.00
2023-02-19T10:54:38.073Z,289.00
2023-02-19T10:55:38.919Z,175.00
2023-02-19T10:56:39.740Z,288.00
2023-02-19T10:57:40.598Z,315.00
2023-02-19T10:58:41.420Z,181.00
2023-02-19T10:59:42.248Z,131.00
2023-02-19T11:00:43.093Z,262.00
2023-02-19T11:01:43.982Z,389.00
2023-02-19T11:02:44.779Z,564.00
2023-02-19T11:03:45.599Z,271.00
2023-02-19T11:04:46.430Z,291.00
2023-02-19T11:05:47.249Z,161.00
2023-02-19T11:06:48.089Z,138.00
2023-02-19T11:07:48.912Z,600.00
2023-02-19T11:08:49.770Z,134.00
2023-02-19T11:09:50.568Z,395.00
2023-02-19T11:10:51.388Z,386.00
2023-02-19T11:11:52.242Z,154.00
2023-02-19T11:12:53.066Z,238.00
2023-02-19T11:13:53.889Z,429.00
2023-02-19T11:14:54.719Z,241.00
2023-02-19T11:15:55.589Z,469.00
2023-02-19T11:16:56.526Z,234.00
2023-02-19T11:17:57.292Z,129.00
2023-02-19T11:18:58.113Z,314.00
2023-02-19T11:19:58.968Z,478.00
2023-02-19T11:20:59.767Z,360.00
2023-02-19T11:22:00.616Z,133.00
2023-02-19T11:23:01.454Z,370.00
2023-02-19T11:24:02.259Z,158.00
2023-02-19T11:25:03.086Z,642.00
2023-02-19T11:26:03.921Z,278.00
2023-02-19T11:27:04.764Z,312.00
2023-02-19T11:28:05.586Z,273.00
2023-02-19T11:29:06.408Z,213.00
2023-02-19T11:30:07.322Z,161.00
2023-02-19T11:31:07.852Z,352.00
2023-02-19T11:32:08.768Z,210.00
2023-02-19T11:33:09.796Z,105.00
2023-02-19T11:34:10.571Z,350.00
2023-02-19T11:35:11.423Z,263.00
2023-02-19T11:36:12.233Z,254.00
2023-02-19T11:37:13.059Z,266.00
2023-02-19T11:38:13.894Z,111.00
2023-02-19T11:39:14.770Z,436.00
2023-02-19T11:40:15.571Z,259.00
2023-02-19T11:41:16.388Z,269.00
2023-02-19T11:42:17.321Z,197.00
2023-02-19T11:43:18.095Z,97.00
2023-02-19T11:44:18.925Z,396.00
2023-02-19T11:45:19.743Z,307.00
2023-02-19T11:46:20.644Z,163.00
2023-02-19T11:47:21.433Z,119.00
2023-02-19T11:48:22.257Z,586.00
2023-02-19T11:49:23.080Z,253.00
2023-02-19T11:50:23.919Z,221.00
2023-02-19T11:51:24.728Z,102.00
2023-02-19T11:52:25.554Z,132.00
2023-02-19T11:53:26.405Z,629.00
2023-02-19T11:54:27.214Z,278.00
2023-02-19T11:55:28.035Z,248.00
2023-02-19T11:56:28.863Z,221.00
2023-02-19T11:57:29.690Z,223.00
2023-02-19T11:58:30.521Z,84.00
2023-02-19T11:59:31.361Z,107.00
2023-02-19T12:00:32.191Z,144.00
2023-02-19T12:01:33.020Z,254.00
2023-02-19T12:02:33.835Z,375.00
2023-02-19T12:03:34.662Z,176.00
2023-02-19T12:04:37.681Z,467.00
2023-02-19T12:05:36.101Z,299.00
2023-02-19T12:06:36.928Z,506.00
2023-02-19T12:07:37.768Z,113.00
2023-02-19T12:08:38.586Z,272.00
2023-02-19T12:09:39.409Z,389.00
2023-02-19T12:10:40.233Z,188.00
2023-02-19T12:11:41.052Z,464.00
2023-02-19T12:12:41.884Z,293.00
2023-02-19T12:13:42.735Z,98.00
2023-02-19T12:14:43.560Z,287.00
2023-02-19T12:15:44.380Z,229.00
2023-02-19T12:16:45.262Z,226.00
2023-02-19T12:17:46.034Z,315.00
2023-02-19T12:18:46.880Z,194.00
2023-02-19T12:19:47.692Z,232.00
2023-02-19T12:20:48.530Z,510.00
2023-02-19T12:21:49.357Z,220.00
2023-02-19T12:22:50.177Z,180.00
2023-02-19T12:23:51.019Z,100.00
2023-02-19T12:24:51.862Z,264.00
2023-02-19T12:25:52.673Z,454.00
2023-02-19T12:26:53.495Z,96.00
2023-02-19T12:27:54.328Z,79.00
2023-02-19T12:28:55.152Z,144.00
2023-02-19T12:29:55.971Z,515.00
2023-02-19T12:30:56.830Z,240.00
2023-02-19T12:31:57.812Z,163.00
2023-02-19T12:32:58.168Z,96.00
2023-02-19T12:33:59.019Z,189.00
2023-02-19T12:34:59.840Z,280.00
2023-02-19T12:36:00.675Z,194.00
2023-02-19T12:37:01.493Z,506.00
2023-02-19T12:38:02.319Z,310.00
2023-02-19T12:39:03.150Z,128.00
2023-02-19T12:40:03.973Z,97.00
2023-02-19T12:41:04.800Z,176.00
2023-02-19T12:42:05.636Z,171.00
2023-02-19T12:43:06.898Z,84.00
2023-02-19T12:44:07.190Z,336.00
2023-02-19T12:45:08.023Z,102.00
2023-02-19T12:46:09.008Z,581.00
2023-02-19T12:47:09.838Z,94.00
2023-02-19T12:48:10.646Z,307.00
2023-02-19T12:49:11.483Z,78.00
2023-02-19T12:50:12.310Z,339.00
2023-02-19T12:51:13.132Z,71.00
2023-02-19T12:52:13.955Z,101.00
2023-02-19T12:53:14.782Z,395.00
2023-02-19T12:54:15.630Z,98.00
2023-02-19T12:55:16.454Z,207.00
2023-02-19T12:56:17.296Z,154.00
2023-02-19T12:57:18.114Z,121.00
2023-02-19T12:58:18.941Z,82.00
2023-02-19T12:59:19.773Z,479.00
2023-02-19T13:00:20.614Z,119.00
2023-02-19T13:01:21.490Z,440.00
2023-02-19T13:02:22.330Z,105.00
2023-02-19T13:03:23.141Z,86.00
2023-02-19T13:04:24.041Z,57.00
2023-02-19T13:05:24.869Z,148.00
2023-02-19T13:06:25.729Z,158.00
2023-02-19T13:07:26.558Z,138.00
2023-02-19T13:08:27.375Z,149.00
2023-02-19T13:09:28.239Z,164.00